Time;durP1;ratioP1;P1;durP2;ratioP2;P2;SDS_P1;SDS_P2;PMS_P1;PMS_P2;Temp;Humidity;BMP_temperature;BMP_pressure;BME280_temperature;BME280_humidity;BME280_pressure;Samples;Min_cycle;Max_cycle;Signal;HPM_P1;HPM_P2
2022/09/07 00:00:52;;;;;;;2.83;1.50;;;14.60;91.00;;;;;;5003164;28;20239;-79
2022/09/07 00:03:19;;;;;;;3.20;1.73;;;14.60;91.00;;;;;;5001170;28;20222;-81
2022/09/07 00:05:48;;;;;;;2.23;1.40;;;14.60;91.00;;;;;;5006382;28;20239;-81
2022/09/07 00:08:17;;;;;;;2.93;1.60;;;14.60;91.10;;;;;;5006550;28;20230;-81
2022/09/07 00:10:51;;;;;;;1.83;1.50;;;14.60;91.00;;;;;;5007326;28;20979;-80
2022/09/07 00:13:18;;;;;;;3.50;1.70;;;14.60;91.20;;;;;;5024039;28;20227;-79
2022/09/07 00:15:46;;;;;;;2.93;1.60;;;14.60;91.00;;;;;;5005740;28;20229;-79
2022/09/07 00:18:12;;;;;;;1.63;1.37;;;14.50;91.20;;;;;;5006186;28;20274;-80
2022/09/07 00:20:39;;;;;;;2.97;1.40;;;14.60;91.10;;;;;;5008740;28;20259;-80
2022/09/07 00:23:06;;;;;;;4.07;1.60;;;14.50;91.10;;;;;;5022713;28;20294;-80
2022/09/07 00:25:35;;;;;;;7.50;1.60;;;14.50;91.30;;;;;;5006613;28;20257;-80
2022/09/07 00:28:02;;;;;;;4.57;2.00;;;14.50;91.30;;;;;;5008618;28;20282;-79
2022/09/07 00:30:29;;;;;;;3.73;1.87;;;14.50;91.40;;;;;;5024378;28;20222;-80
2022/09/07 00:32:59;;;;;;;3.67;1.50;;;14.50;91.50;;;;;;5010416;28;20221;-79
2022/09/07 00:35:26;;;;;;;3.60;1.43;;;14.40;91.70;;;;;;5003855;28;20629;-79
2022/09/07 00:37:52;;;;;;;2.33;1.80;;;14.40;91.70;;;;;;5006744;28;20254;-81
2022/09/07 00:40:19;;;;;;;2.40;1.63;;;14.40;91.70;;;;;;5021057;28;20258;-81
2022/09/07 00:42:46;;;;;;;2.17;1.50;;;14.40;91.60;;;;;;5006956;28;20225;-80
2022/09/07 00:45:16;;;;;;;2.80;1.50;;;14.40;91.70;;;;;;5006386;28;20260;-80
2022/09/07 00:47:49;;;;;;;3.07;1.60;;;14.30;91.80;;;;;;5009594;28;20301;-81
2022/09/07 00:50:25;;;;;;;2.73;1.70;;;14.30;91.80;;;;;;5003990;28;20232;-79
2022/09/07 00:52:57;;;;;;;4.73;1.93;;;14.30;91.90;;;;;;5008730;28;20303;-79
2022/09/07 00:55:24;;;;;;;2.07;1.53;;;14.30;91.90;;;;;;5008820;28;20239;-79
2022/09/07 00:57:54;;;;;;;4.27;1.60;;;14.30;91.90;;;;;;5000360;28;20205;-79
2022/09/07 01:00:21;;;;;;;3.63;1.53;;;14.30;92.10;;;;;;5015627;28;20309;-79
2022/09/07 01:02:51;;;;;;;2.40;1.47;;;14.30;92.00;;;;;;5005263;28;20219;-80
2022/09/07 01:05:26;;;;;;;6.07;1.60;;;14.20;92.00;;;;;;4999331;28;21021;-80
2022/09/07 01:07:55;;;;;;;3.03;1.60;;;14.20;92.10;;;;;;4996342;28;20237;-77
2022/09/07 01:10:24;;;;;;;3.00;1.30;;;14.20;92.00;;;;;;5011186;28;20235;-78
2022/09/07 01:12:51;;;;;;;2.37;1.60;;;14.20;92.10;;;;;;4995579;28;20220;-77
2022/09/07 01:15:18;;;;;;;2.37;1.70;;;14.20;92.10;;;;;;4998207;28;20881;-78
2022/09/07 01:17:56;;;;;;;4.00;1.57;;;14.20;92.10;;;;;;5000800;28;20320;-78
2022/09/07 01:20:39;;;;;;;4.83;1.77;;;14.20;92.20;;;;;;4999643;28;20232;-77
2022/09/07 01:23:28;;;;;;;1.57;1.40;;;14.20;92.20;;;;;;4995436;28;20699;-77
2022/09/07 01:26:17;;;;;;;2.83;1.73;;;14.20;92.20;;;;;;4996701;28;20707;-77
2022/09/07 01:28:48;;;;;;;1.87;1.40;;;14.20;92.30;;;;;;5012953;28;20238;-78
2022/09/07 01:31:25;;;;;;;5.23;1.60;;;14.20;92.20;;;;;;5011795;28;20228;-77
2022/09/07 01:34:01;;;;;;;2.67;1.80;;;14.20;92.60;;;;;;4994458;28;20231;-77
2022/09/07 01:36:34;;;;;;;2.23;1.60;;;14.20;92.60;;;;;;5006683;28;20230;-77
2022/09/07 01:39:03;;;;;;;3.43;1.40;;;14.20;92.30;;;;;;4997098;28;20228;-77
2022/09/07 01:41:35;;;;;;;2.23;1.60;;;14.20;92.10;;;;;;4994870;28;20228;-76
2022/09/07 01:44:07;;;;;;;2.97;1.60;;;14.20;92.20;;;;;;4996223;28;20711;-77
2022/09/07 01:46:39;;;;;;;2.40;1.43;;;14.30;92.30;;;;;;4998883;28;20231;-77
2022/09/07 01:49:10;;;;;;;2.83;1.60;;;14.30;92.20;;;;;;4995349;28;20317;-77
2022/09/07 01:51:44;;;;;;;2.03;1.50;;;14.30;92.20;;;;;;4996737;28;20226;-78
2022/09/07 01:54:16;;;;;;;4.77;1.77;;;14.30;92.20;;;;;;5009919;28;20379;-77
2022/09/07 01:56:47;;;;;;;3.00;1.90;;;14.30;92.20;;;;;;5009803;28;20226;-77
2022/09/07 01:59:20;;;;;;;5.23;2.00;;;14.40;92.20;;;;;;4994513;28;20262;-77
2022/09/07 02:01:52;;;;;;;3.20;1.80;;;14.40;92.20;;;;;;4998094;28;20221;-77
2022/09/07 02:04:23;;;;;;;2.87;1.80;;;14.50;92.10;;;;;;4995205;28;20314;-77
2022/09/07 02:06:57;;;;;;;3.60;2.30;;;14.40;92.10;;;;;;4996432;28;20228;-78
2022/09/07 02:09:31;;;;;;;2.20;1.50;;;14.50;92.10;;;;;;5006046;28;20735;-78
2022/09/07 02:12:02;;;;;;;1.90;1.50;;;14.50;92.10;;;;;;4995464;28;20232;-77
2022/09/07 02:14:36;;;;;;;4.17;1.70;;;14.50;92.00;;;;;;4994418;28;20426;-78
2022/09/07 02:17:09;;;;;;;3.30;1.70;;;14.50;91.90;;;;;;4996708;28;20225;-77
2022/09/07 02:19:42;;;;;;;2.13;1.50;;;14.60;92.10;;;;;;4978804;28;20236;-77
2022/09/07 02:22:12;;;;;;;4.00;1.80;;;14.60;91.80;;;;;;4990892;28;20236;-78
2022/09/07 02:24:42;;;;;;;3.17;1.90;;;14.60;91.80;;;;;;4995812;28;20322;-78
2022/09/07 02:27:13;;;;;;;3.93;2.30;;;14.60;91.80;;;;;;4996786;28;20232;-76
2022/09/07 02:29:42;;;;;;;4.40;2.20;;;14.60;91.80;;;;;;4997460;28;20224;-78
2022/09/07 02:32:09;;;;;;;2.57;2.00;;;14.70;91.80;;;;;;4996633;28;21153;-77
2022/09/07 02:34:36;;;;;;;5.80;2.00;;;14.60;91.60;;;;;;4997001;28;20602;-77
2022/09/07 02:37:06;;;;;;;3.67;2.10;;;14.70;91.70;;;;;;4992316;28;20223;-78
2022/09/07 02:39:33;;;;;;;4.97;2.10;;;14.60;91.60;;;;;;4993707;28;20230;-78
2022/09/07 02:42:00;;;;;;;3.27;2.00;;;14.70;91.70;;;;;;4997551;28;20719;-78
2022/09/07 02:44:31;;;;;;;2.27;1.90;;;14.70;91.70;;;;;;4999639;28;20327;-78
2022/09/07 02:47:12;;;;;;;4.50;2.30;;;14.60;91.80;;;;;;4995052;28;20234;-78
2022/09/07 02:49:54;;;;;;;3.13;2.50;;;14.60;91.70;;;;;;4995275;28;20220;-78
2022/09/07 02:52:29;;;;;;;4.10;2.50;;;14.60;92.10;;;;;;4996906;28;20219;-78
2022/09/07 02:55:06;;;;;;;2.97;2.20;;;14.60;91.70;;;;;;5011853;28;20234;-78
2022/09/07 02:57:41;;;;;;;6.23;2.43;;;14.60;91.80;;;;;;4984323;28;20286;-78
2022/09/07 03:00:11;;;;;;;3.67;2.20;;;14.60;91.80;;;;;;4990148;28;20224;-77
2022/09/07 03:02:50;;;;;;;4.07;2.53;;;14.60;91.80;;;;;;5010277;28;20354;-77
2022/09/07 03:05:21;;;;;;;3.07;2.20;;;14.50;91.90;;;;;;4993698;28;20711;-77
2022/09/07 03:07:53;;;;;;;4.43;2.30;;;14.50;91.80;;;;;;4997170;28;20769;-77
2022/09/07 03:10:21;;;;;;;3.33;2.30;;;14.50;91.90;;;;;;4993439;28;20880;-77
2022/09/07 03:12:51;;;;;;;2.93;2.10;;;14.50;91.90;;;;;;4996648;28;20243;-76
2022/09/07 03:15:20;;;;;;;4.60;2.73;;;14.50;91.90;;;;;;4993162;28;20240;-76
2022/09/07 03:17:48;;;;;;;3.83;2.30;;;14.50;91.90;;;;;;4995256;28;20218;-78
2022/09/07 03:20:16;;;;;;;6.17;3.03;;;14.50;92.00;;;;;;4998218;28;20282;-78
2022/09/07 03:22:43;;;;;;;5.47;2.83;;;14.50;92.00;;;;;;5013879;28;20769;-78
2022/09/07 03:25:11;;;;;;;5.10;3.03;;;14.50;92.10;;;;;;4996198;28;20265;-78
2022/09/07 03:27:37;;;;;;;3.50;2.77;;;14.40;92.10;;;;;;4996527;28;20329;-78
2022/09/07 03:30:05;;;;;;;5.37;2.90;;;14.40;92.20;;;;;;4997093;28;20748;-78
2022/09/07 03:32:33;;;;;;;3.13;2.67;;;14.40;92.20;;;;;;4994832;28;20749;-77
2022/09/07 03:35:03;;;;;;;4.03;2.97;;;14.40;92.20;;;;;;4997482;28;20227;-77
2022/09/07 03:37:30;;;;;;;4.57;3.00;;;14.40;92.30;;;;;;4995310;28;20255;-77
2022/09/07 03:39:56;;;;;;;4.00;2.77;;;14.40;92.20;;;;;;4994896;28;20227;-77
2022/09/07 03:42:23;;;;;;;6.53;3.70;;;14.40;92.30;;;;;;4995874;28;20231;-77
2022/09/07 03:44:50;;;;;;;4.27;3.23;;;14.40;92.30;;;;;;4997136;28;20309;-78
2022/09/07 03:47:18;;;;;;;4.67;3.37;;;14.30;92.30;;;;;;4998555;28;20232;-78
2022/09/07 03:49:45;;;;;;;6.70;3.27;;;14.30;92.40;;;;;;4994146;28;20228;-77
2022/09/07 03:52:12;;;;;;;3.93;3.00;;;14.30;92.40;;;;;;5006015;28;20274;-78
2022/09/07 03:54:39;;;;;;;6.43;2.90;;;14.30;92.50;;;;;;4991193;28;20234;-77
2022/09/07 03:57:07;;;;;;;5.33;3.17;;;14.30;92.40;;;;;;4996561;28;20224;-78
2022/09/07 03:59:33;;;;;;;7.00;3.47;;;14.30;92.50;;;;;;4993389;28;20229;-77
2022/09/07 04:02:00;;;;;;;5.07;3.90;;;14.30;92.60;;;;;;4980359;28;20770;-77
2022/09/07 04:04:28;;;;;;;6.57;3.63;;;14.30;92.70;;;;;;4985684;28;20231;-77
2022/09/07 04:06:54;;;;;;;6.40;3.40;;;14.30;92.70;;;;;;4998630;28;20236;-77
2022/09/07 04:09:22;;;;;;;7.50;3.37;;;14.20;92.70;;;;;;4995631;28;20227;-77
2022/09/07 04:11:49;;;;;;;6.03;3.40;;;14.20;92.70;;;;;;4997749;28;20224;-77
2022/09/07 04:14:16;;;;;;;6.60;3.83;;;14.20;92.70;;;;;;4997659;28;20747;-77
2022/09/07 04:16:44;;;;;;;5.83;4.03;;;14.20;92.70;;;;;;4997589;28;20759;-78
2022/09/07 04:19:11;;;;;;;7.17;3.70;;;14.30;92.80;;;;;;4999720;28;20622;-78
2022/09/07 04:21:37;;;;;;;8.10;3.90;;;14.20;92.70;;;;;;4995868;28;21062;-78
2022/09/07 04:24:04;;;;;;;6.47;3.90;;;14.20;92.70;;;;;;4996152;28;20224;-78
2022/09/07 04:26:34;;;;;;;7.43;4.30;;;14.20;92.80;;;;;;4997599;28;20707;-78
2022/09/07 04:29:01;;;;;;;5.97;4.20;;;14.20;92.80;;;;;;4995173;28;20235;-77
2022/09/07 04:31:28;;;;;;;7.63;4.07;;;14.20;92.80;;;;;;4997391;28;20229;-76
2022/09/07 04:33:56;;;;;;;7.47;4.00;;;14.20;92.90;;;;;;4998049;28;20229;-76
2022/09/07 04:36:24;;;;;;;9.37;4.70;;;14.20;93.00;;;;;;4991050;28;20234;-76
2022/09/07 04:38:54;;;;;;;7.73;4.70;;;14.30;92.90;;;;;;4996660;28;20220;-76
2022/09/07 04:41:21;;;;;;;6.80;4.40;;;14.30;93.00;;;;;;4995516;28;20229;-78
2022/09/07 04:43:53;;;;;;;8.90;4.33;;;14.30;92.90;;;;;;5004152;28;20237;-77
2022/09/07 04:46:22;;;;;;;6.13;4.13;;;14.30;93.00;;;;;;4994434;28;20227;-78
2022/09/07 04:48:50;;;;;;;8.07;4.60;;;14.30;93.00;;;;;;5015382;28;20658;-77
2022/09/07 04:51:20;;;;;;;8.07;4.23;;;14.30;92.90;;;;;;5001906;28;20311;-77
2022/09/07 04:53:48;;;;;;;7.37;4.43;;;14.30;92.90;;;;;;4999333;28;20219;-77
2022/09/07 04:56:15;;;;;;;7.53;4.33;;;14.30;93.00;;;;;;4998607;28;20375;-77
2022/09/07 04:58:41;;;;;;;8.67;4.20;;;14.30;92.90;;;;;;4995974;28;20664;-78
2022/09/07 05:01:10;;;;;;;6.30;4.07;;;14.30;92.90;;;;;;4994473;28;20234;-76
2022/09/07 05:03:40;;;;;;;7.17;4.13;;;14.30;92.90;;;;;;4998541;28;20305;-77
2022/09/07 05:06:08;;;;;;;6.97;4.00;;;14.30;92.90;;;;;;4997705;28;20232;-77
2022/09/07 05:08:36;;;;;;;7.83;4.00;;;14.30;92.80;;;;;;4994077;28;20325;-78
2022/09/07 05:11:03;;;;;;;5.57;3.90;;;14.30;92.80;;;;;;4992383;28;20883;-77
2022/09/07 05:13:31;;;;;;;7.50;3.60;;;14.30;92.70;;;;;;4992764;28;20239;-78
2022/09/07 05:15:58;;;;;;;6.43;4.13;;;14.30;92.70;;;;;;4998066;28;20229;-78
2022/09/07 05:18:26;;;;;;;7.97;3.87;;;14.40;92.70;;;;;;4996782;28;20226;-79
2022/09/07 05:20:53;;;;;;;4.57;3.30;;;14.40;92.70;;;;;;4994474;28;20256;-78
2022/09/07 05:23:21;;;;;;;7.50;3.80;;;14.40;92.80;;;;;;5007909;28;20816;-78
2022/09/07 05:25:47;;;;;;;7.80;4.23;;;14.40;92.80;;;;;;5004796;28;20233;-79
2022/09/07 05:28:14;;;;;;;7.70;3.70;;;14.40;92.80;;;;;;5003308;28;20243;-78
2022/09/07 05:30:41;;;;;;;6.30;3.70;;;14.50;92.90;;;;;;4999656;28;20761;-79
2022/09/07 05:33:07;;;;;;;5.83;3.90;;;14.50;92.80;;;;;;5002533;28;20227;-80
2022/09/07 05:35:35;;;;;;;6.03;3.77;;;14.50;92.80;;;;;;5003691;28;20229;-79
2022/09/07 05:38:04;;;;;;;4.77;3.77;;;14.50;93.00;;;;;;5003424;28;20722;-79
2022/09/07 05:40:31;;;;;;;5.97;3.77;;;14.60;93.00;;;;;;4999990;28;20225;-78
2022/09/07 05:43:03;;;;;;;8.20;3.93;;;14.60;92.90;;;;;;5001123;28;20788;-78
2022/09/07 05:45:30;;;;;;;6.27;3.57;;;14.60;92.80;;;;;;5000919;28;20255;-79
2022/09/07 05:47:57;;;;;;;4.40;3.40;;;14.60;92.90;;;;;;5002925;28;20221;-79
2022/09/07 05:50:24;;;;;;;4.47;3.50;;;14.70;92.90;;;;;;5001610;28;20243;-79
2022/09/07 05:52:52;;;;;;;6.40;3.00;;;14.70;92.90;;;;;;4998221;28;20220;-78
2022/09/07 05:55:19;;;;;;;4.27;3.17;;;14.70;92.90;;;;;;5013472;28;20262;-79
2022/09/07 05:57:48;;;;;;;7.37;3.97;;;14.80;93.00;;;;;;5003371;28;20731;-79
2022/09/07 06:00:15;;;;;;;8.53;4.33;;;14.80;93.10;;;;;;4998222;28;20250;-78
2022/09/07 06:02:43;;;;;;;8.10;3.80;;;14.90;93.30;;;;;;5014543;28;20234;-79
2022/09/07 06:05:10;;;;;;;5.03;3.27;;;14.90;93.20;;;;;;5001067;28;20224;-79
2022/09/07 06:07:37;;;;;;;5.80;3.50;;;14.90;93.20;;;;;;5017159;28;20242;-79
2022/09/07 06:10:07;;;;;;;7.13;3.20;;;15.00;93.10;;;;;;4998566;28;20231;-78
2022/09/07 06:12:34;;;;;;;10.13;3.70;;;15.00;93.00;;;;;;5002966;28;20260;-79
2022/09/07 06:15:00;;;;;;;6.17;3.00;;;15.10;92.90;;;;;;5002139;28;20938;-78
2022/09/07 06:17:30;;;;;;;6.47;3.23;;;15.10;93.00;;;;;;4996908;28;20227;-79
2022/09/07 06:20:00;;;;;;;6.10;2.80;;;15.10;92.90;;;;;;5015124;28;20239;-79
2022/09/07 06:22:27;;;;;;;4.83;3.10;;;15.10;92.90;;;;;;4999281;28;20236;-80
2022/09/07 06:24:54;;;;;;;5.53;3.20;;;15.10;92.90;;;;;;5001787;28;20229;-79
2022/09/07 06:27:22;;;;;;;3.83;3.13;;;15.10;92.90;;;;;;4994048;28;20229;-79
2022/09/07 06:29:49;;;;;;;4.23;2.77;;;15.20;92.90;;;;;;4998361;28;20220;-80
2022/09/07 06:32:15;;;;;;;5.00;3.20;;;15.20;93.00;;;;;;4999005;28;20232;-77
2022/09/07 06:34:42;;;;;;;4.83;3.40;;;15.30;93.40;;;;;;4999843;28;20243;-79
2022/09/07 06:37:09;;;;;;;7.37;3.33;;;15.30;93.80;;;;;;4994708;28;20240;-78
2022/09/07 06:39:39;;;;;;;6.00;3.20;;;15.30;94.00;;;;;;5002030;28;20239;-77
2022/09/07 06:42:06;;;;;;;6.83;3.30;;;15.30;94.10;;;;;;4989651;28;20960;-78
2022/09/07 06:44:42;;;;;;;4.83;2.80;;;15.30;94.00;;;;;;4999767;28;20617;-77
2022/09/07 06:47:12;;;;;;;6.10;3.17;;;15.30;93.70;;;;;;4995273;28;20225;-78
2022/09/07 06:49:39;;;;;;;5.23;3.13;;;15.30;93.60;;;;;;4994667;28;20583;-77
2022/09/07 06:52:05;;;;;;;6.03;3.23;;;15.30;93.70;;;;;;4998607;28;20235;-78
2022/09/07 06:54:32;;;;;;;5.93;3.00;;;15.30;93.70;;;;;;4998839;28;20236;-76
2022/09/07 06:57:06;;;;;;;4.97;3.17;;;15.30;94.20;;;;;;4998246;28;20274;-78
2022/09/07 06:59:35;;;;;;;10.13;3.80;;;15.30;94.80;;;;;;4998825;28;20604;-77
2022/09/07 07:02:04;;;;;;;9.50;3.53;;;15.30;94.90;;;;;;4998928;28;20225;-79
2022/09/07 07:04:31;;;;;;;8.73;3.33;;;15.30;95.00;;;;;;4969585;28;20236;-77
2022/09/07 07:06:57;;;;;;;9.13;3.03;;;15.30;95.30;;;;;;4987464;28;20238;-78
2022/09/07 07:09:24;;;;;;;3.87;3.00;;;15.30;95.20;;;;;;4975639;28;20241;-78
2022/09/07 07:11:51;;;;;;;6.83;3.67;;;15.30;95.60;;;;;;4988786;28;20272;-78
2022/09/07 07:14:20;;;;;;;7.97;3.80;;;15.30;96.20;;;;;;4992002;28;20233;-77
2022/09/07 07:16:47;;;;;;;7.03;3.60;;;15.30;97.30;;;;;;4992321;28;20301;-78
2022/09/07 07:19:15;;;;;;;4.97;3.40;;;15.30;98.00;;;;;;4999117;28;20229;-78
2022/09/07 07:21:42;;;;;;;4.97;3.90;;;15.30;98.70;;;;;;4989206;28;20232;-78
2022/09/07 07:24:09;;;;;;;4.33;3.40;;;15.20;98.60;;;;;;4994641;28;20230;-78
2022/09/07 07:26:36;;;;;;;6.00;3.60;;;15.20;98.70;;;;;;4999508;28;20239;-79
2022/09/07 07:29:03;;;;;;;4.87;3.60;;;15.20;99.00;;;;;;4999133;28;20708;-79
2022/09/07 07:31:32;;;;;;;4.83;3.40;;;15.20;99.30;;;;;;4999035;28;20260;-78
2022/09/07 07:33:58;;;;;;;6.17;3.53;;;15.20;99.60;;;;;;5013925;28;20231;-78
2022/09/07 07:36:27;;;;;;;7.03;3.70;;;15.20;99.50;;;;;;5010363;28;20231;-78
2022/09/07 07:38:56;;;;;;;8.67;3.73;;;15.20;99.40;;;;;;5002105;28;20285;-78
2022/09/07 07:41:30;;;;;;;4.70;3.40;;;15.20;99.50;;;;;;5006504;28;20359;-78
2022/09/07 07:43:58;;;;;;;5.90;3.50;;;15.10;99.90;;;;;;5017437;28;20243;-78
2022/09/07 07:46:27;;;;;;;5.37;4.00;;;15.10;99.90;;;;;;5001705;28;20219;-78
2022/09/07 07:48:54;;;;;;;5.50;3.60;;;15.10;99.90;;;;;;4999982;28;20252;-77
2022/09/07 07:51:21;;;;;;;4.17;3.70;;;15.10;99.90;;;;;;5003211;28;20594;-78
2022/09/07 07:53:49;;;;;;;6.03;3.33;;;15.10;99.90;;;;;;5002681;28;20229;-78
2022/09/07 07:56:17;;;;;;;4.80;3.30;;;15.00;99.90;;;;;;4996156;28;20701;-78
2022/09/07 07:58:47;;;;;;;3.90;3.27;;;15.00;99.80;;;;;;5006048;28;20220;-78
2022/09/07 08:01:16;;;;;;;5.97;3.53;;;15.00;99.90;;;;;;5003286;28;20304;-77
2022/09/07 08:03:46;;;;;;;6.30;3.83;;;15.00;99.90;;;;;;5002838;28;20231;-78
2022/09/07 08:06:14;;;;;;;4.43;3.70;;;14.90;99.90;;;;;;4998115;28;20232;-77
2022/09/07 08:08:41;;;;;;;5.43;3.77;;;14.90;99.90;;;;;;5001688;28;20232;-78
2022/09/07 08:11:13;;;;;;;7.20;4.00;;;14.90;99.90;;;;;;5000776;28;20228;-79
2022/09/07 08:13:41;;;;;;;5.10;4.20;;;14.90;99.90;;;;;;5003431;28;20768;-78
2022/09/07 08:16:09;;;;;;;7.10;3.93;;;14.80;99.90;;;;;;5001378;28;20213;-78
2022/09/07 08:18:38;;;;;;;5.90;3.83;;;14.80;99.90;;;;;;5016474;28;20308;-77
2022/09/07 08:21:06;;;;;;;6.23;3.83;;;14.80;99.90;;;;;;5015248;28;20228;-78
2022/09/07 08:23:34;;;;;;;5.43;3.50;;;14.70;99.90;;;;;;5002571;28;20322;-78
2022/09/07 08:26:01;;;;;;;6.40;3.83;;;14.70;99.90;;;;;;5003908;28;20335;-78
2022/09/07 08:28:30;;;;;;;8.00;4.00;;;14.60;99.90;;;;;;5007109;28;20230;-78
2022/09/07 08:30:57;;;;;;;6.33;4.33;;;14.60;99.90;;;;;;5004846;28;20239;-78
2022/09/07 08:33:25;;;;;;;7.10;4.70;;;14.50;99.90;;;;;;4997986;28;20283;-78
2022/09/07 08:38:22;;;;;;;6.67;4.37;;;14.40;99.90;;;;;;4939301;28;20229;-79
2022/09/07 08:40:50;;;;;;;9.00;4.27;;;14.40;99.90;;;;;;4945663;29;20245;-79
2022/09/07 08:43:39;;;;;;;6.10;4.20;;;14.30;99.90;;;;;;4943955;28;20308;-79
2022/09/07 08:46:14;;;;;;;6.63;4.50;;;14.30;99.90;;;;;;4943622;28;20249;-79
2022/09/07 08:48:42;;;;;;;14.43;4.47;;;14.20;99.90;;;;;;4966739;28;20264;-79
2022/09/07 08:51:12;;;;;;;4.57;3.90;;;14.20;99.90;;;;;;4962419;28;20240;-79
2022/09/07 08:53:45;;;;;;;5.17;4.03;;;14.20;99.90;;;;;;4963464;28;20232;-79
2022/09/07 08:56:17;;;;;;;5.80;4.10;;;14.10;99.90;;;;;;4964250;28;20225;-79
2022/09/07 08:58:48;;;;;;;5.80;3.90;;;14.10;99.90;;;;;;4958296;28;20801;-79
2022/09/07 09:01:15;;;;;;;6.00;4.43;;;14.20;99.90;;;;;;4958259;28;20331;-78
2022/09/07 09:03:43;;;;;;;5.93;4.07;;;14.20;99.90;;;;;;4966862;28;20244;-80
2022/09/07 09:06:17;;;;;;;5.67;3.70;;;14.20;99.90;;;;;;4968955;28;20232;-79
2022/09/07 09:08:55;;;;;;;4.70;3.67;;;14.20;99.90;;;;;;4966951;28;20291;-78
2022/09/07 09:11:27;;;;;;;6.23;3.93;;;14.30;99.90;;;;;;4947270;28;20249;-79
2022/09/07 09:14:01;;;;;;;9.53;3.73;;;14.40;99.90;;;;;;4968732;28;20228;-79
2022/09/07 09:16:33;;;;;;;7.20;3.90;;;14.50;99.90;;;;;;4963954;28;21045;-79
2022/09/07 09:19:18;;;;;;;5.03;3.77;;;14.60;99.90;;;;;;4969189;28;20247;-79
2022/09/07 09:21:46;;;;;;;5.80;3.97;;;14.70;99.90;;;;;;4964860;28;20739;-79
2022/09/07 09:24:16;;;;;;;5.70;3.70;;;14.90;99.90;;;;;;4968054;28;20242;-79
2022/09/07 09:26:46;;;;;;;5.73;4.23;;;15.00;99.90;;;;;;4961571;28;20225;-79
2022/09/07 09:29:16;;;;;;;5.20;3.67;;;15.10;99.90;;;;;;4965946;28;20960;-79
2022/09/07 09:31:43;;;;;;;5.90;3.73;;;15.20;99.90;;;;;;4964243;28;20241;-79
2022/09/07 09:34:12;;;;;;;3.77;3.40;;;15.40;99.90;;;;;;4965984;28;20685;-79
2022/09/07 09:36:45;;;;;;;5.97;3.90;;;15.60;99.90;;;;;;4958507;28;20257;-78
2022/09/07 09:39:31;;;;;;;5.30;3.80;;;15.80;99.90;;;;;;4968435;28;20215;-78
2022/09/07 09:42:01;;;;;;;4.63;3.33;;;16.10;99.90;;;;;;4969037;28;20233;-79
2022/09/07 09:44:34;;;;;;;6.53;3.50;;;16.30;99.90;;;;;;4970806;28;20822;-78
2022/09/07 09:47:02;;;;;;;4.10;3.50;;;16.50;99.90;;;;;;4960202;28;20238;-79
2022/09/07 09:49:36;;;;;;;9.03;3.30;;;16.70;99.90;;;;;;4966546;28;20250;-78
2022/09/07 09:52:04;;;;;;;4.50;3.20;;;16.90;99.90;;;;;;4960442;28;20222;-81
2022/09/07 09:54:33;;;;;;;4.93;3.17;;;17.20;99.90;;;;;;4964644;28;20882;-80
2022/09/07 09:57:00;;;;;;;4.77;3.57;;;17.30;99.90;;;;;;4963510;28;20223;-80
2022/09/07 09:59:31;;;;;;;6.20;3.60;;;17.50;99.90;;;;;;4961852;28;20287;-80
2022/09/07 10:01:58;;;;;;;4.40;3.17;;;17.60;99.90;;;;;;4957596;28;20235;-80
2022/09/07 10:04:32;;;;;;;6.20;3.17;;;17.70;99.90;;;;;;4958029;28;20227;-81
2022/09/07 10:07:08;;;;;;;5.93;3.30;;;17.80;99.90;;;;;;4963670;28;20695;-81
2022/09/07 10:09:37;;;;;;;4.57;3.27;;;18.00;99.90;;;;;;4958804;28;20489;-80
2022/09/07 10:12:06;;;;;;;8.65;3.97;;;18.10;99.90;;;;;;4960679;28;20326;-81
2022/09/07 10:14:36;;;;;;;5.25;3.13;;;18.30;99.90;;;;;;4966453;28;20432;-80
2022/09/07 10:17:12;;;;;;;4.43;3.03;;;18.40;99.90;;;;;;4962360;28;20237;-81
2022/09/07 10:19:41;;;;;;;6.22;3.40;;;18.50;99.50;;;;;;4961789;28;20226;-81
2022/09/07 10:22:23;;;;;;;6.57;3.78;;;18.60;99.00;;;;;;4963737;28;20214;-80
2022/09/07 10:24:50;;;;;;;5.47;3.50;;;18.60;97.90;;;;;;4962597;28;20241;-81
2022/09/07 10:27:30;;;;;;;5.93;3.77;;;18.70;98.80;;;;;;4958711;28;20230;-81
2022/09/07 10:29:58;;;;;;;5.15;3.03;;;18.80;99.80;;;;;;4960245;28;20248;-81
2022/09/07 10:32:41;;;;;;;4.85;3.42;;;19.10;99.80;;;;;;4959433;28;20606;-79
2022/09/07 10:35:17;;;;;;;7.30;3.58;;;19.40;99.90;;;;;;4964479;28;20229;-80
2022/09/07 10:37:52;;;;;;;4.70;3.92;;;19.80;99.90;;;;;;4962603;28;20317;-80
2022/09/07 10:40:28;;;;;;;6.10;3.63;;;20.20;99.90;;;;;;4967407;28;20234;-80
2022/09/07 10:43:03;;;;;;;4.38;3.47;;;20.70;99.70;;;;;;4971611;28;20218;-80
2022/09/07 10:45:41;;;;;;;4.68;3.80;;;21.20;98.00;;;;;;4962006;28;20226;-80
2022/09/07 10:48:16;;;;;;;6.32;3.55;;;21.60;96.70;;;;;;4958324;28;20342;-80
2022/09/07 10:50:47;;;;;;;3.58;3.03;;;22.00;96.30;;;;;;4962437;28;20229;-80
2022/09/07 10:53:29;;;;;;;5.55;3.92;;;22.40;95.90;;;;;;4957102;28;20230;-80
2022/09/07 10:56:03;;;;;;;4.03;3.63;;;22.80;95.50;;;;;;4972272;28;20226;-80
2022/09/07 10:58:37;;;;;;;5.72;3.25;;;23.30;94.90;;;;;;4961759;28;20237;-80
2022/09/07 11:01:15;;;;;;;4.88;3.58;;;23.70;94.30;;;;;;4957109;28;20645;-80
2022/09/07 11:04:01;;;;;;;4.47;3.53;;;24.20;93.40;;;;;;4954787;28;20263;-81
2022/09/07 11:06:33;;;;;;;5.20;3.42;;;24.60;92.70;;;;;;4958966;28;20235;-81
2022/09/07 11:09:28;;;;;;;4.40;3.90;;;25.00;92.40;;;;;;4964532;28;20879;-81
2022/09/07 11:12:00;;;;;;;4.30;3.55;;;25.30;91.20;;;;;;4959852;28;20253;-81
2022/09/07 11:14:29;;;;;;;4.20;3.20;;;25.70;90.80;;;;;;4965178;28;20249;-80
2022/09/07 11:16:59;;;;;;;4.22;3.40;;;26.00;90.40;;;;;;4966589;28;20231;-81
2022/09/07 11:19:30;;;;;;;4.85;3.63;;;26.30;88.00;;;;;;4968791;28;20701;-81
2022/09/07 11:22:03;;;;;;;4.40;3.80;;;26.50;87.40;;;;;;4968488;28;20226;-81
2022/09/07 11:24:34;;;;;;;3.80;3.50;;;26.80;86.30;;;;;;4967943;28;20766;-81
2022/09/07 11:27:07;;;;;;;6.15;3.78;;;26.90;85.30;;;;;;4966343;28;20717;-81
2022/09/07 11:29:40;;;;;;;4.40;3.45;;;27.00;84.70;;;;;;4963019;28;20227;-81
2022/09/07 11:32:15;;;;;;;3.80;3.35;;;27.20;83.60;;;;;;4968246;28;20226;-81
2022/09/07 11:34:47;;;;;;;6.45;3.53;;;27.30;83.20;;;;;;4962881;28;20238;-81
2022/09/07 11:37:19;;;;;;;4.80;3.78;;;27.40;82.80;;;;;;4969023;28;20286;-81
2022/09/07 11:39:51;;;;;;;4.90;3.70;;;27.40;80.90;;;;;;4970267;28;20848;-81
2022/09/07 11:42:23;;;;;;;4.43;3.30;;;27.30;80.90;;;;;;4966361;28;20317;-81
2022/09/07 11:44:55;;;;;;;4.35;3.53;;;27.30;80.60;;;;;;4966716;28;20697;-81
2022/09/07 11:47:28;;;;;;;6.38;3.22;;;27.10;80.80;;;;;;4959135;28;20224;-81
2022/09/07 11:49:55;;;;;;;4.38;3.45;;;27.20;81.20;;;;;;4968287;28;20218;-81
2022/09/07 11:52:32;;;;;;;5.80;3.45;;;27.20;81.10;;;;;;4966627;28;20227;-80
2022/09/07 11:55:03;;;;;;;4.75;3.50;;;27.30;80.20;;;;;;4961429;28;20219;-81
2022/09/07 11:57:43;;;;;;;3.33;3.03;;;27.40;79.70;;;;;;4967046;28;20234;-81
2022/09/07 12:00:18;;;;;;;6.18;3.60;;;27.50;78.70;;;;;;4965260;28;20234;-81
2022/09/07 12:03:17;;;;;;;4.00;3.17;;;27.50;78.30;;;;;;4961425;28;20244;-81
2022/09/07 12:06:27;;;;;;;4.40;3.30;;;27.60;78.80;;;;;;4963025;28;20234;-81
2022/09/07 12:09:08;;;;;;;5.82;3.47;;;27.70;78.50;;;;;;4945251;28;20223;-81
2022/09/07 12:12:05;;;;;;;3.67;3.17;;;27.80;78.40;;;;;;4966391;28;20238;-81
2022/09/07 12:14:47;;;;;;;4.05;3.40;;;27.80;77.70;;;;;;4952757;28;20670;-81
2022/09/07 12:17:36;;;;;;;4.25;3.47;;;27.90;76.80;;;;;;4971037;28;20237;-82
2022/09/07 12:20:13;;;;;;;3.58;3.22;;;27.90;77.30;;;;;;4975776;28;20237;-83
2022/09/07 12:22:59;;;;;;;4.47;3.42;;;27.80;76.80;;;;;;4973891;28;20309;-84
2022/09/07 12:25:25;;;;;;;4.00;3.25;;;27.80;76.90;;;;;;4975580;28;20301;-84
2022/09/07 12:27:52;;;;;;;3.92;3.25;;;27.80;76.80;;;;;;4969464;28;20266;-84
2022/09/07 12:31:03;;;;;;;4.03;3.03;;;27.80;76.20;;;;;;4954137;28;20270;-83
2022/09/07 12:33:32;;;;;;;5.47;3.33;;;27.80;76.80;;;;;;4946847;28;20234;-83
2022/09/07 12:36:01;;;;;;;5.32;3.53;;;27.80;77.20;;;;;;4967980;28;20608;-84
2022/09/07 12:39:07;;;;;;;5.40;3.10;;;28.00;76.70;;;;;;4981761;28;20227;-83
2022/09/07 12:41:43;;;;;;;4.75;3.05;;;28.10;76.00;;;;;;4980893;28;20219;-84
2022/09/07 12:44:17;;;;;;;3.33;3.03;;;28.40;76.10;;;;;;4967662;28;20241;-84
2022/09/07 12:46:47;;;;;;;4.30;3.40;;;28.60;75.00;;;;;;4965271;28;20675;-84
2022/09/07 12:49:39;;;;;;;4.13;3.30;;;28.80;73.80;;;;;;4964296;28;20766;-84
2022/09/07 12:52:25;;;;;;;5.65;3.25;;;28.90;71.70;;;;;;4960885;28;20321;-84
2022/09/07 12:54:57;;;;;;;3.90;3.20;;;28.90;71.30;;;;;;4968887;28;20234;-85
2022/09/07 12:57:31;;;;;;;3.95;3.10;;;28.90;72.30;;;;;;4965785;28;20230;-82
2022/09/07 13:00:12;;;;;;;4.75;3.40;;;28.90;73.00;;;;;;4967964;28;20225;-84
2022/09/07 13:03:07;;;;;;;3.65;3.25;;;28.90;73.50;;;;;;4943903;28;20217;-78
2022/09/07 13:05:45;;;;;;;3.75;3.30;;;29.00;72.90;;;;;;4959336;28;20238;-78
2022/09/07 13:08:48;;;;;;;3.85;3.38;;;29.20;73.00;;;;;;4955786;28;20945;-79